sensor_id;sensor_type;location;lat;lon;timestamp;pressure;altitude;pressure_sealevel;temperature;humidity
25420;BME280;13354;48.174;11.566;2023-01-27T00:00:23;95735.22;;;-0.20;91.26
25420;BME280;13354;48.174;11.566;2023-01-27T00:02:49;95737.38;;;-0.26;91.78
25420;BME280;13354;48.174;11.566;2023-01-27T00:05:15;95730.00;;;-0.20;92.13
25420;BME280;13354;48.174;11.566;2023-01-27T00:07:41;95734.16;;;-0.18;92.20
25420;BME280;13354;48.174;11.566;2023-01-27T00:10:14;95730.53;;;-0.06;91.24
25420;BME280;13354;48.174;11.566;2023-01-27T00:12:40;95730.09;;;-0.11;91.32
25420;BME280;13354;48.174;11.566;2023-01-27T00:15:24;95734.22;;;-0.08;91.74
25420;BME280;13354;48.174;11.566;2023-01-27T00:17:49;95730.78;;;-0.09;91.63
25420;BME280;13354;48.174;11.566;2023-01-27T00:20:15;95727.84;;;-0.15;92.08
25420;BME280;13354;48.174;11.566;2023-01-27T00:22:59;95730.72;;;-0.18;92.34
25420;BME280;13354;48.174;11.566;2023-01-27T00:25:44;95726.91;;;-0.14;93.19
25420;BME280;13354;48.174;11.566;2023-01-27T00:28:17;95727.41;;;-0.20;93.15
25420;BME280;13354;48.174;11.566;2023-01-27T00:30:48;95731.22;;;-0.25;92.90
25420;BME280;13354;48.174;11.566;2023-01-27T00:33:14;95726.97;;;-0.26;92.31
25420;BME280;13354;48.174;11.566;2023-01-27T00:38:24;95730.63;;;-0.28;92.74
25420;BME280;13354;48.174;11.566;2023-01-27T00:40:50;95721.88;;;-0.27;92.84
25420;BME280;13354;48.174;11.566;2023-01-27T00:43:35;95723.41;;;-0.25;92.31
25420;BME280;13354;48.174;11.566;2023-01-27T00:46:00;95723.84;;;-0.19;92.41
25420;BME280;13354;48.174;11.566;2023-01-27T00:48:26;95723.28;;;-0.23;92.89
25420;BME280;13354;48.174;11.566;2023-01-27T00:50:51;95728.38;;;-0.21;93.48
25420;BME280;13354;48.174;11.566;2023-01-27T00:53:16;95729.19;;;-0.21;93.72
25420;BME280;13354;48.174;11.566;2023-01-27T00:55:42;95728.38;;;-0.21;93.92
25420;BME280;13354;48.174;11.566;2023-01-27T00:58:07;95730.44;;;-0.15;93.63
25420;BME280;13354;48.174;11.566;2023-01-27T01:00:32;95731.53;;;-0.18;92.99
25420;BME280;13354;48.174;11.566;2023-01-27T01:02:57;95736.16;;;-0.21;92.70
25420;BME280;13354;48.174;11.566;2023-01-27T01:05:23;95741.03;;;-0.28;91.74
25420;BME280;13354;48.174;11.566;2023-01-27T01:07:48;95740.78;;;-0.25;91.98
25420;BME280;13354;48.174;11.566;2023-01-27T01:10:14;95741.03;;;-0.28;92.03
25420;BME280;13354;48.174;11.566;2023-01-27T01:12:39;95739.25;;;-0.28;92.14
25420;BME280;13354;48.174;11.566;2023-01-27T01:15:05;95742.56;;;-0.26;92.26
25420;BME280;13354;48.174;11.566;2023-01-27T01:17:31;95746.09;;;-0.27;91.70
25420;BME280;13354;48.174;11.566;2023-01-27T01:19:56;95741.47;;;-0.23;91.66
25420;BME280;13354;48.174;11.566;2023-01-27T01:22:21;95748.84;;;-0.28;91.76
25420;BME280;13354;48.174;11.566;2023-01-27T01:24:46;95743.16;;;-0.22;91.67
25420;BME280;13354;48.174;11.566;2023-01-27T01:27:12;95753.56;;;-0.22;92.33
25420;BME280;13354;48.174;11.566;2023-01-27T01:29:37;95752.34;;;-0.18;91.82
25420;BME280;13354;48.174;11.566;2023-01-27T01:32:03;95742.06;;;-0.19;91.16
25420;BME280;13354;48.174;11.566;2023-01-27T01:34:28;95743.25;;;-0.23;91.39
25420;BME280;13354;48.174;11.566;2023-01-27T01:36:53;95747.41;;;-0.21;91.20
25420;BME280;13354;48.174;11.566;2023-01-27T01:39:19;95740.41;;;-0.20;91.64
25420;BME280;13354;48.174;11.566;2023-01-27T01:41:44;95741.13;;;-0.18;91.72
25420;BME280;13354;48.174;11.566;2023-01-27T01:44:25;95733.75;;;-0.13;91.90
25420;BME280;13354;48.174;11.566;2023-01-27T01:46:50;95738.16;;;-0.14;91.58
25420;BME280;13354;48.174;11.566;2023-01-27T01:49:17;95720.31;;;-0.18;90.69
25420;BME280;13354;48.174;11.566;2023-01-27T01:51:47;95717.56;;;-0.17;91.08
25420;BME280;13354;48.174;11.566;2023-01-27T01:54:17;95716.88;;;-0.19;90.94
25420;BME280;13354;48.174;11.566;2023-01-27T01:56:59;95708.38;;;-0.21;91.52
25420;BME280;13354;48.174;11.566;2023-01-27T01:59:31;95710.41;;;-0.25;91.70
25420;BME280;13354;48.174;11.566;2023-01-27T02:02:00;95710.41;;;-0.25;91.72
25420;BME280;13354;48.174;11.566;2023-01-27T02:04:32;95721.81;;;-0.16;91.24
25420;BME280;13354;48.174;11.566;2023-01-27T02:07:06;95731.94;;;-0.34;90.81
25420;BME280;13354;48.174;11.566;2023-01-27T02:09:32;95734.53;;;-0.34;90.81
25420;BME280;13354;48.174;11.566;2023-01-27T02:11:58;95733.03;;;-0.15;90.79
25420;BME280;13354;48.174;11.566;2023-01-27T02:14:23;95731.16;;;-0.13;89.21
25420;BME280;13354;48.174;11.566;2023-01-27T02:16:49;95728.66;;;-0.15;89.06
25420;BME280;13354;48.174;11.566;2023-01-27T02:19:26;95718.53;;;-0.18;88.67
25420;BME280;13354;48.174;11.566;2023-01-27T02:21:56;95710.84;;;-0.19;88.87
25420;BME280;13354;48.174;11.566;2023-01-27T02:24:30;95719.84;;;-0.23;88.58
25420;BME280;13354;48.174;11.566;2023-01-27T02:26:57;95723.78;;;-0.29;89.29
25420;BME280;13354;48.174;11.566;2023-01-27T02:29:22;95723.50;;;-0.26;89.65
25420;BME280;13354;48.174;11.566;2023-01-27T02:31:48;95725.28;;;-0.27;89.81
25420;BME280;13354;48.174;11.566;2023-01-27T02:34:19;95732.75;;;-0.33;89.92
25420;BME280;13354;48.174;11.566;2023-01-27T02:36:53;95725.22;;;-0.36;90.94
25420;BME280;13354;48.174;11.566;2023-01-27T02:39:24;95732.75;;;-0.33;91.58
25420;BME280;13354;48.174;11.566;2023-01-27T02:41:53;95718.13;;;-0.34;92.06
25420;BME280;13354;48.174;11.566;2023-01-27T02:44:20;95716.09;;;-0.31;91.83
25420;BME280;13354;48.174;11.566;2023-01-27T02:46:46;95717.44;;;-0.36;91.86
25420;BME280;13354;48.174;11.566;2023-01-27T02:49:11;95721.53;;;-0.34;91.99
25420;BME280;13354;48.174;11.566;2023-01-27T02:51:37;95716.22;;;-0.32;92.57
25420;BME280;13354;48.174;11.566;2023-01-27T02:54:03;95717.44;;;-0.36;92.25
25420;BME280;13354;48.174;11.566;2023-01-27T02:56:28;95722.34;;;-0.33;91.74
25420;BME280;13354;48.174;11.566;2023-01-27T02:58:54;95717.78;;;-0.41;91.75
25420;BME280;13354;48.174;11.566;2023-01-27T03:01:20;95714.50;;;-0.43;92.18
25420;BME280;13354;48.174;11.566;2023-01-27T03:03:45;95710.59;;;-0.49;92.16
25420;BME280;13354;48.174;11.566;2023-01-27T03:06:14;95710.47;;;-0.47;92.50
25420;BME280;13354;48.174;11.566;2023-01-27T03:08:40;95711.16;;;-0.45;92.86
25420;BME280;13354;48.174;11.566;2023-01-27T03:11:07;95720.88;;;-0.47;92.83
25420;BME280;13354;48.174;11.566;2023-01-27T03:13:32;95716.25;;;-0.43;93.61
25420;BME280;13354;48.174;11.566;2023-01-27T03:15:58;95716.25;;;-0.43;93.59
25420;BME280;13354;48.174;11.566;2023-01-27T03:18:43;95723.34;;;-0.45;94.62
25420;BME280;13354;48.174;11.566;2023-01-27T03:21:14;95710.19;;;-0.33;94.18
25420;BME280;13354;48.174;11.566;2023-01-27T03:23:41;95710.34;;;-0.45;93.76
25420;BME280;13354;48.174;11.566;2023-01-27T03:26:07;95721.47;;;-0.43;94.29
25420;BME280;13354;48.174;11.566;2023-01-27T03:28:33;95719.56;;;-0.41;94.57
25420;BME280;13354;48.174;11.566;2023-01-27T03:31:05;95714.88;;;-0.27;94.59
25420;BME280;13354;48.174;11.566;2023-01-27T03:33:32;95713.09;;;-0.26;94.07
25420;BME280;13354;48.174;11.566;2023-01-27T03:36:00;95706.31;;;-0.38;93.81
25420;BME280;13354;48.174;11.566;2023-01-27T03:38:44;95713.88;;;-0.35;93.62
25420;BME280;13354;48.174;11.566;2023-01-27T03:41:28;95703.03;;;-0.40;94.38
25420;BME280;13354;48.174;11.566;2023-01-27T03:44:12;95705.88;;;-0.43;94.63
25420;BME280;13354;48.174;11.566;2023-01-27T03:46:56;95703.13;;;-0.42;94.70
25420;BME280;13354;48.174;11.566;2023-01-27T03:49:21;95693.81;;;-0.56;94.08
25420;BME280;13354;48.174;11.566;2023-01-27T03:51:47;95704.13;;;-0.54;94.55
25420;BME280;13354;48.174;11.566;2023-01-27T03:54:12;95704.13;;;-0.54;94.44
25420;BME280;13354;48.174;11.566;2023-01-27T03:56:37;95694.97;;;-0.49;94.97
25420;BME280;13354;48.174;11.566;2023-01-27T03:59:03;95704.69;;;-0.51;95.02
25420;BME280;13354;48.174;11.566;2023-01-27T04:01:28;95714.38;;;-0.53;94.69
25420;BME280;13354;48.174;11.566;2023-01-27T04:03:53;95716.25;;;-0.43;94.56
25420;BME280;13354;48.174;11.566;2023-01-27T04:06:39;95707.38;;;-0.41;94.67
25420;BME280;13354;48.174;11.566;2023-01-27T04:11:50;95702.88;;;-0.39;93.85
25420;BME280;13354;48.174;11.566;2023-01-27T04:14:38;95710.25;;;-0.44;94.09
25420;BME280;13354;48.174;11.566;2023-01-27T04:17:11;95704.56;;;-0.49;93.74
25420;BME280;13354;48.174;11.566;2023-01-27T04:19:37;95713.09;;;-0.47;93.16
25420;BME280;13354;48.174;11.566;2023-01-27T04:22:04;95705.88;;;-0.43;92.36
25420;BME280;13354;48.174;11.566;2023-01-27T04:24:29;95712.00;;;-0.44;92.58
25420;BME280;13354;48.174;11.566;2023-01-27T04:27:00;95707.03;;;-0.36;91.85
25420;BME280;13354;48.174;11.566;2023-01-27T04:29:28;95712.41;;;-0.28;91.02
25420;BME280;13354;48.174;11.566;2023-01-27T04:31:55;95704.66;;;-0.39;90.68
25420;BME280;13354;48.174;11.566;2023-01-27T04:34:22;95701.94;;;-0.38;90.81
25420;BME280;13354;48.174;11.566;2023-01-27T04:36:48;95705.09;;;-0.34;90.71
25420;BME280;13354;48.174;11.566;2023-01-27T04:39:13;95710.31;;;-0.34;90.68
25420;BME280;13354;48.174;11.566;2023-01-27T04:41:39;95707.03;;;-0.36;90.67
25420;BME280;13354;48.174;11.566;2023-01-27T04:44:05;95709.03;;;-0.40;90.65
25420;BME280;13354;48.174;11.566;2023-01-27T04:46:31;95711.31;;;-0.46;90.85
25420;BME280;13354;48.174;11.566;2023-01-27T04:48:56;95715.69;;;-0.47;90.93
25420;BME280;13354;48.174;11.566;2023-01-27T04:51:22;95713.66;;;-0.43;90.74
25420;BME280;13354;48.174;11.566;2023-01-27T04:53:47;95708.00;;;-0.49;91.04
25420;BME280;13354;48.174;11.566;2023-01-27T04:58:48;95715.22;;;-0.52;91.36
25420;BME280;13354;48.174;11.566;2023-01-27T05:01:14;95717.00;;;-0.53;91.78
25420;BME280;13354;48.174;11.566;2023-01-27T05:03:39;95709.31;;;-0.54;92.31
25420;BME280;13354;48.174;11.566;2023-01-27T05:06:04;95713.69;;;-0.55;92.10
25420;BME280;13354;48.174;11.566;2023-01-27T05:08:30;95714.16;;;-0.50;91.93
25420;BME280;13354;48.174;11.566;2023-01-27T05:10:55;95719.09;;;-0.46;91.20
25420;BME280;13354;48.174;11.566;2023-01-27T05:13:20;95719.22;;;-0.48;91.68
25420;BME280;13354;48.174;11.566;2023-01-27T05:15:46;95706.34;;;-0.50;91.46
25420;BME280;13354;48.174;11.566;2023-01-27T05:18:12;95717.72;;;-0.51;91.26
25420;BME280;13354;48.174;11.566;2023-01-27T05:20:37;95713.56;;;-0.53;91.29
25420;BME280;13354;48.174;11.566;2023-01-27T05:23:02;95715.22;;;-0.52;91.30
25420;BME280;13354;48.174;11.566;2023-01-27T05:25:46;95714.38;;;-0.53;91.56
25420;BME280;13354;48.174;11.566;2023-01-27T05:28:12;95721.13;;;-0.50;90.93
25420;BME280;13354;48.174;11.566;2023-01-27T05:30:37;95723.38;;;-0.57;90.73
25420;BME280;13354;48.174;11.566;2023-01-27T05:33:02;95727.38;;;-0.53;90.36
25420;BME280;13354;48.174;11.566;2023-01-27T05:35:28;95731.78;;;-0.53;89.98
25420;BME280;13354;48.174;11.566;2023-01-27T05:37:56;95741.34;;;-0.54;90.55
25420;BME280;13354;48.174;11.566;2023-01-27T05:40:21;95739.94;;;-0.58;90.61
25420;BME280;13354;48.174;11.566;2023-01-27T05:42:47;95735.44;;;-0.56;90.94
25420;BME280;13354;48.174;11.566;2023-01-27T05:45:15;95743.00;;;-0.53;91.35
25420;BME280;13354;48.174;11.566;2023-01-27T05:47:40;95739.78;;;-0.45;91.31
25420;BME280;13354;48.174;11.566;2023-01-27T05:50:05;95746.75;;;-0.45;90.74
25420;BME280;13354;48.174;11.566;2023-01-27T05:52:31;95744.88;;;-0.43;90.56
25420;BME280;13354;48.174;11.566;2023-01-27T05:54:56;95748.31;;;-0.43;90.00
25420;BME280;13354;48.174;11.566;2023-01-27T05:57:22;95745.69;;;-0.43;89.55
25420;BME280;13354;48.174;11.566;2023-01-27T05:59:47;95756.09;;;-0.43;89.38
25420;BME280;13354;48.174;11.566;2023-01-27T06:02:12;95760.00;;;-0.49;88.63
25420;BME280;13354;48.174;11.566;2023-01-27T06:04:39;95767.22;;;-0.52;89.32
25420;BME280;13354;48.174;11.566;2023-01-27T06:07:04;95765.44;;;-0.52;89.43
25420;BME280;13354;48.174;11.566;2023-01-27T06:09:30;95766.75;;;-0.46;90.65
25420;BME280;13354;48.174;11.566;2023-01-27T06:11:55;95767.09;;;-0.39;90.40
25420;BME280;13354;48.174;11.566;2023-01-27T06:14:20;95762.22;;;-0.33;89.02
25420;BME280;13354;48.174;11.566;2023-01-27T06:16:46;95760.59;;;-0.45;88.74
25420;BME280;13354;48.174;11.566;2023-01-27T06:19:11;95764.34;;;-0.38;89.78
25420;BME280;13354;48.174;11.566;2023-01-27T06:21:36;95762.81;;;-0.29;89.54
25420;BME280;13354;48.174;11.566;2023-01-27T06:24:02;95771.78;;;-0.33;89.86
25420;BME280;13354;48.174;11.566;2023-01-27T06:26:28;95763.66;;;-0.40;89.66
25420;BME280;13354;48.174;11.566;2023-01-27T06:28:55;95764.59;;;-0.41;89.65
25420;BME280;13354;48.174;11.566;2023-01-27T06:31:21;95765.16;;;-0.37;89.75
25420;BME280;13354;48.174;11.566;2023-01-27T06:33:47;95771.56;;;-0.41;90.00
25420;BME280;13354;48.174;11.566;2023-01-27T06:36:14;95783.16;;;-0.45;90.91
25420;BME280;13354;48.174;11.566;2023-01-27T06:38:40;95775.25;;;-0.44;90.90
25420;BME280;13354;48.174;11.566;2023-01-27T06:41:05;95779.03;;;-0.37;90.73
25420;BME280;13354;48.174;11.566;2023-01-27T06:43:31;95795.09;;;-0.32;90.29
25420;BME280;13354;48.174;11.566;2023-01-27T06:45:56;95793.16;;;-0.30;90.02
25420;BME280;13354;48.174;11.566;2023-01-27T06:48:22;95802.88;;;-0.32;90.26
25420;BME280;13354;48.174;11.566;2023-01-27T06:50:47;95802.06;;;-0.32;90.94
25420;BME280;13354;48.174;11.566;2023-01-27T06:53:13;95800.31;;;-0.43;91.17
25420;BME280;13354;48.174;11.566;2023-01-27T06:55:38;95805.13;;;-0.27;90.79
25420;BME280;13354;48.174;11.566;2023-01-27T06:58:09;95803.56;;;-0.30;90.96
25420;BME280;13354;48.174;11.566;2023-01-27T07:00:36;95800.41;;;-0.33;90.80
25420;BME280;13354;48.174;11.566;2023-01-27T07:03:02;95803.84;;;-0.33;91.43
25420;BME280;13354;48.174;11.566;2023-01-27T07:05:27;95802.06;;;-0.32;91.20
25420;BME280;13354;48.174;11.566;2023-01-27T07:07:53;95802.53;;;-0.38;91.96
25420;BME280;13354;48.174;11.566;2023-01-27T07:10:18;95801.59;;;-0.37;92.14
25420;BME280;13354;48.174;11.566;2023-01-27T07:12:44;95805.59;;;-0.33;92.79
25420;BME280;13354;48.174;11.566;2023-01-27T07:15:10;95809.97;;;-0.34;93.77
25420;BME280;13354;48.174;11.566;2023-01-27T07:17:36;95810.13;;;-0.35;94.27
25420;BME280;13354;48.174;11.566;2023-01-27T07:20:02;95805.59;;;-0.33;94.83
25420;BME280;13354;48.174;11.566;2023-01-27T07:22:27;95799.56;;;-0.34;95.05
25420;BME280;13354;48.174;11.566;2023-01-27T07:24:53;95803.25;;;-0.36;95.22
25420;BME280;13354;48.174;11.566;2023-01-27T07:27:22;95790.50;;;-0.39;94.66
25420;BME280;13354;48.174;11.566;2023-01-27T07:29:48;95799.47;;;-0.32;94.39
25420;BME280;13354;48.174;11.566;2023-01-27T07:32:13;95792.38;;;-0.41;94.33
25420;BME280;13354;48.174;11.566;2023-01-27T07:34:38;95802.09;;;-0.43;94.13
25420;BME280;13354;48.174;11.566;2023-01-27T07:37:04;95800.28;;;-0.32;94.26
25420;BME280;13354;48.174;11.566;2023-01-27T07:39:30;95796.41;;;-0.05;95.49
25420;BME280;13354;48.174;11.566;2023-01-27T07:41:56;95793.13;;;-0.07;98.16
25420;BME280;13354;48.174;11.566;2023-01-27T07:44:23;95804.13;;;-0.15;96.86
25420;BME280;13354;48.174;11.566;2023-01-27T07:46:48;95796.25;;;-0.25;95.96
25420;BME280;13354;48.174;11.566;2023-01-27T07:49:13;95795.53;;;-0.27;95.26
25420;BME280;13354;48.174;11.566;2023-01-27T07:51:39;95790.56;;;-0.30;94.97
25420;BME280;13354;48.174;11.566;2023-01-27T07:54:05;95793.16;;;-0.30;94.61
25420;BME280;13354;48.174;11.566;2023-01-27T07:56:33;95792.25;;;-0.29;95.11
25420;BME280;13354;48.174;11.566;2023-01-27T07:59:02;95796.88;;;-0.32;94.98
25420;BME280;13354;48.174;11.566;2023-01-27T08:01:27;95795.09;;;-0.32;94.96
25420;BME280;13354;48.174;11.566;2023-01-27T08:03:53;95793.44;;;-0.33;94.81
25420;BME280;13354;48.174;11.566;2023-01-27T08:06:18;95792.81;;;-0.25;94.85
25420;BME280;13354;48.174;11.566;2023-01-27T08:08:43;95801.69;;;-0.28;94.50
25420;BME280;13354;48.174;11.566;2023-01-27T08:11:11;95806.91;;;-0.28;94.37
25420;BME280;13354;48.174;11.566;2023-01-27T08:13:37;95807.25;;;-0.21;94.42
25420;BME280;13354;48.174;11.566;2023-01-27T08:16:04;95800.75;;;-0.27;94.54
25420;BME280;13354;48.174;11.566;2023-01-27T08:18:31;95801.69;;;-0.28;94.02
25420;BME280;13354;48.174;11.566;2023-01-27T08:21:08;95801.56;;;-0.26;94.01
25420;BME280;13354;48.174;11.566;2023-01-27T08:23:34;95808.44;;;-0.25;93.94
25420;BME280;13354;48.174;11.566;2023-01-27T08:26:01;95814.47;;;-0.25;94.59
25420;BME280;13354;48.174;11.566;2023-01-27T08:28:29;95809.84;;;-0.21;93.95
25420;BME280;13354;48.174;11.566;2023-01-27T08:31:05;95819.88;;;-0.16;93.79
25420;BME280;13354;48.174;11.566;2023-01-27T08:33:30;95802.63;;;-0.17;93.64
25420;BME280;13354;48.174;11.566;2023-01-27T08:36:01;95807.00;;;-0.18;93.72
25420;BME280;13354;48.174;11.566;2023-01-27T08:38:27;95823.53;;;-0.19;93.88
25420;BME280;13354;48.174;11.566;2023-01-27T08:40:55;95823.91;;;-0.23;93.38
25420;BME280;13354;48.174;11.566;2023-01-27T08:43:20;95830.50;;;-0.08;93.58
25420;BME280;13354;48.174;11.566;2023-01-27T08:45:46;95818.91;;;-0.15;93.39
25420;BME280;13354;48.174;11.566;2023-01-27T08:48:11;95834.81;;;-0.18;94.22
25420;BME280;13354;48.174;11.566;2023-01-27T08:50:37;95824.59;;;-0.10;93.93
25420;BME280;13354;48.174;11.566;2023-01-27T08:53:02;95833.56;;;-0.03;93.38
25420;BME280;13354;48.174;11.566;2023-01-27T08:55:30;95843.50;;;-0.08;93.58
25420;BME280;13354;48.174;11.566;2023-01-27T08:57:56;95843.25;;;-0.05;93.22
25420;BME280;13354;48.174;11.566;2023-01-27T09:00:21;95845.50;;;-0.01;92.77
25420;BME280;13354;48.174;11.566;2023-01-27T09:02:47;95839.03;;;-0.06;92.10
25420;BME280;13354;48.174;11.566;2023-01-27T09:05:15;95842.34;;;-0.15;91.83
25420;BME280;13354;48.174;11.566;2023-01-27T09:07:42;95846.47;;;-0.13;91.95
25420;BME280;13354;48.174;11.566;2023-01-27T09:10:08;95844.09;;;-0.05;91.39
25420;BME280;13354;48.174;11.566;2023-01-27T09:12:34;95828.47;;;-0.05;91.45
25420;BME280;13354;48.174;11.566;2023-01-27T09:14:59;95835.09;;;-0.01;91.18
25420;BME280;13354;48.174;11.566;2023-01-27T09:17:24;95840.78;;;-0.07;91.25
25420;BME280;13354;48.174;11.566;2023-01-27T09:19:49;95843.63;;;-0.10;91.31
25420;BME280;13354;48.174;11.566;2023-01-27T09:22:15;95843.16;;;-0.15;91.13
25420;BME280;13354;48.174;11.566;2023-01-27T09:24:40;95853.81;;;-0.07;90.44
25420;BME280;13354;48.174;11.566;2023-01-27T09:27:06;95850.47;;;0.03;90.32
25420;BME280;13354;48.174;11.566;2023-01-27T09:29:31;95858.75;;;0.08;91.13
25420;BME280;13354;48.174;11.566;2023-01-27T09:31:56;95853.22;;;0.22;90.76
25420;BME280;13354;48.174;11.566;2023-01-27T09:34:21;95854.19;;;0.21;90.14
25420;BME280;13354;48.174;11.566;2023-01-27T09:36:50;95859.06;;;0.14;89.76
25420;BME280;13354;48.174;11.566;2023-01-27T09:39:18;95860.34;;;0.20;89.14
25420;BME280;13354;48.174;11.566;2023-01-27T09:42:18;95859.16;;;0.24;88.96
25420;BME280;13354;48.174;11.566;2023-01-27T09:45:19;95858.53;;;0.32;88.41
25420;BME280;13354;48.174;11.566;2023-01-27T09:50:51;95852.16;;;0.24;87.87
25420;BME280;13354;48.174;11.566;2023-01-27T09:56:59;95856.59;;;0.13;87.69
25420;BME280;13354;48.174;11.566;2023-01-27T10:14:08;95862.19;;;0.29;87.98
25420;BME280;13354;48.174;11.566;2023-01-27T10:19:43;95866.34;;;0.32;87.70
25420;BME280;13354;48.174;11.566;2023-01-27T10:22:20;95860.06;;;0.34;87.89
25420;BME280;13354;48.174;11.566;2023-01-27T10:27:37;95858.38;;;0.12;89.00
25420;BME280;13354;48.174;11.566;2023-01-27T10:30:13;95863.19;;;0.17;89.22
25420;BME280;13354;48.174;11.566;2023-01-27T10:32:43;95863.88;;;0.30;89.06
25420;BME280;13354;48.174;11.566;2023-01-27T10:43:11;95873.38;;;0.52;85.69
25420;BME280;13354;48.174;11.566;2023-01-27T10:45:55;95875.44;;;0.58;84.63
25420;BME280;13354;48.174;11.566;2023-01-27T10:51:00;95878.81;;;0.49;83.97
25420;BME280;13354;48.174;11.566;2023-01-27T10:56:16;95873.63;;;0.49;83.24
25420;BME280;13354;48.174;11.566;2023-01-27T11:01:14;95870.09;;;0.39;84.29
25420;BME280;13354;48.174;11.566;2023-01-27T11:03:45;95864.41;;;0.45;84.60
25420;BME280;13354;48.174;11.566;2023-01-27T11:06:17;95865.16;;;0.57;84.33
25420;BME280;13354;48.174;11.566;2023-01-27T11:08:48;95872.28;;;0.76;82.90
25420;BME280;13354;48.174;11.566;2023-01-27T11:11:17;95862.91;;;0.63;83.20
25420;BME280;13354;48.174;11.566;2023-01-27T11:19:55;95856.41;;;0.58;83.03
25420;BME280;13354;48.174;11.566;2023-01-27T11:22:26;95862.19;;;0.61;82.83
25420;BME280;13354;48.174;11.566;2023-01-27T11:25:04;95849.97;;;0.62;82.27
25420;BME280;13354;48.174;11.566;2023-01-27T11:30:20;95854.13;;;0.85;82.50
25420;BME280;13354;48.174;11.566;2023-01-27T11:35:41;95857.44;;;0.66;80.93
25420;BME280;13354;48.174;11.566;2023-01-27T11:38:11;95868.41;;;0.70;81.12
25420;BME280;13354;48.174;11.566;2023-01-27T11:40:37;95854.25;;;0.84;81.60
25420;BME280;13354;48.174;11.566;2023-01-27T11:43:03;95855.38;;;0.91;80.64
25420;BME280;13354;48.174;11.566;2023-01-27T11:45:32;95850.34;;;0.99;80.85
25420;BME280;13354;48.174;11.566;2023-01-27T11:48:01;95839.34;;;0.95;80.42
25420;BME280;13354;48.174;11.566;2023-01-27T11:50:33;95848.94;;;0.95;80.43
25420;BME280;13354;48.174;11.566;2023-01-27T11:55:50;95846.09;;;0.98;79.40
25420;BME280;13354;48.174;11.566;2023-01-27T11:58:26;95845.78;;;0.91;79.14
25420;BME280;13354;48.174;11.566;2023-01-27T12:01:00;95845.44;;;1.06;78.77
25420;BME280;13354;48.174;11.566;2023-01-27T12:03:30;95837.03;;;0.92;79.33
25420;BME280;13354;48.174;11.566;2023-01-27T12:06:08;95849.53;;;0.99;79.44
25420;BME280;13354;48.174;11.566;2023-01-27T12:13:47;95836.53;;;1.08;78.60
25420;BME280;13354;48.174;11.566;2023-01-27T12:16:13;95839.16;;;1.08;78.70
25420;BME280;13354;48.174;11.566;2023-01-27T12:18:48;95827.25;;;1.15;78.65
25420;BME280;13354;48.174;11.566;2023-01-27T12:21:16;95838.72;;;1.03;77.67
25420;BME280;13354;48.174;11.566;2023-01-27T12:23:52;95831.19;;;1.10;77.73
25420;BME280;13354;48.174;11.566;2023-01-27T12:26:39;95831.03;;;1.02;78.22
25420;BME280;13354;48.174;11.566;2023-01-27T12:29:24;95834.84;;;0.98;78.43
25420;BME280;13354;48.174;11.566;2023-01-27T12:31:53;95828.00;;;0.96;78.62
25420;BME280;13354;48.174;11.566;2023-01-27T12:34:27;95829.97;;;1.14;78.49
25420;BME280;13354;48.174;11.566;2023-01-27T12:36:54;95826.44;;;1.15;77.92
25420;BME280;13354;48.174;11.566;2023-01-27T12:42:03;95834.59;;;1.01;78.34
25420;BME280;13354;48.174;11.566;2023-01-27T12:44:48;95824.75;;;1.14;78.90
25420;BME280;13354;48.174;11.566;2023-01-27T12:47:32;95832.31;;;1.17;79.04
25420;BME280;13354;48.174;11.566;2023-01-27T12:50:20;95827.16;;;1.27;78.54
25420;BME280;13354;48.174;11.566;2023-01-27T12:53:15;95826.44;;;1.25;77.98
25420;BME280;13354;48.174;11.566;2023-01-27T13:06:42;95828.16;;;1.05;77.55
25420;BME280;13354;48.174;11.566;2023-01-27T13:11:49;95819.19;;;1.28;77.94
25420;BME280;13354;48.174;11.566;2023-01-27T13:14:17;95815.25;;;1.34;76.51
25420;BME280;13354;48.174;11.566;2023-01-27T13:16:53;95812.94;;;1.40;76.58
25420;BME280;13354;48.174;11.566;2023-01-27T13:19:19;95812.94;;;1.40;76.85
25420;BME280;13354;48.174;11.566;2023-01-27T13:21:48;95820.88;;;1.39;76.48
25420;BME280;13354;48.174;11.566;2023-01-27T13:24:30;95817.88;;;1.43;76.34
25420;BME280;13354;48.174;11.566;2023-01-27T13:26:56;95819.16;;;1.49;75.73
25420;BME280;13354;48.174;11.566;2023-01-27T13:29:27;95818.41;;;1.37;76.09
25420;BME280;13354;48.174;11.566;2023-01-27T13:32:18;95811.50;;;1.27;76.29
25420;BME280;13354;48.174;11.566;2023-01-27T13:34:48;95813.16;;;1.28;75.35
25420;BME280;13354;48.174;11.566;2023-01-27T13:40:22;95823.69;;;1.16;76.51
25420;BME280;13354;48.174;11.566;2023-01-27T13:43:01;95818.88;;;1.12;76.85
25420;BME280;13354;48.174;11.566;2023-01-27T13:45:52;95819.50;;;1.35;76.08
25420;BME280;13354;48.174;11.566;2023-01-27T13:48:34;95828.47;;;1.11;75.50
25420;BME280;13354;48.174;11.566;2023-01-27T13:51:13;95828.97;;;1.05;75.89
25420;BME280;13354;48.174;11.566;2023-01-27T13:53:39;95823.25;;;1.11;76.11
25420;BME280;13354;48.174;11.566;2023-01-27T13:59:07;95825.22;;;1.19;76.48
25420;BME280;13354;48.174;11.566;2023-01-27T14:02:05;95833.38;;;1.05;75.62
25420;BME280;13354;48.174;11.566;2023-01-27T14:05:09;95835.00;;;1.06;76.15
25420;BME280;13354;48.174;11.566;2023-01-27T14:10:35;95838.41;;;1.27;75.86
25420;BME280;13354;48.174;11.566;2023-01-27T14:13:06;95835.50;;;1.20;76.19
25420;BME280;13354;48.174;11.566;2023-01-27T14:16:08;95838.00;;;1.22;76.19
25420;BME280;13354;48.174;11.566;2023-01-27T14:18:45;95834.50;;;1.12;76.32
25420;BME280;13354;48.174;11.566;2023-01-27T14:29:59;95831.72;;;1.04;77.28
25420;BME280;13354;48.174;11.566;2023-01-27T14:32:45;95834.59;;;1.01;77.37
25420;BME280;13354;48.174;11.566;2023-01-27T14:35:32;95840.44;;;0.93;77.71
25420;BME280;13354;48.174;11.566;2023-01-27T14:38:21;95841.66;;;0.89;77.92
25420;BME280;13354;48.174;11.566;2023-01-27T14:46:29;95843.56;;;0.87;77.95
25420;BME280;13354;48.174;11.566;2023-01-27T14:55:06;95853.84;;;0.88;77.88
25420;BME280;13354;48.174;11.566;2023-01-27T14:57:56;95863.44;;;0.88;78.14
25420;BME280;13354;48.174;11.566;2023-01-27T15:00:52;95863.09;;;0.92;77.34